createdAt,value
2023-05-13T00:00:03.195Z,68.70
2023-05-13T00:02:32.531Z,68.60
2023-05-13T00:05:00.310Z,68.70
2023-05-13T00:07:28.329Z,68.70
2023-05-13T00:09:56.390Z,68.70
2023-05-13T00:12:24.152Z,68.80
2023-05-13T00:14:51.933Z,68.80
2023-05-13T00:17:19.676Z,68.90
2023-05-13T00:19:48.783Z,69.20
2023-05-13T00:22:16.553Z,69.30
2023-05-13T00:24:44.278Z,70.10
2023-05-13T00:27:12.284Z,69.70
2023-05-13T00:29:40.028Z,69.50
2023-05-13T00:32:08.167Z,69.70
2023-05-13T00:34:35.875Z,69.70
2023-05-13T00:37:05.191Z,69.70
2023-05-13T00:39:33.265Z,69.90
2023-05-13T00:42:01.000Z,70.10
2023-05-13T00:44:28.837Z,70.10
2023-05-13T00:46:56.681Z,70.20
2023-05-13T00:49:24.420Z,70.30
2023-05-13T00:51:55.028Z,70.30
2023-05-13T00:54:24.142Z,70.40
2023-05-13T00:56:54.405Z,70.60
2023-05-13T00:59:22.410Z,70.70
2023-05-13T01:01:58.351Z,70.70
2023-05-13T01:04:37.698Z,70.80
2023-05-13T01:07:15.672Z,70.90
2023-05-13T01:09:55.257Z,70.90
2023-05-13T01:12:30.731Z,71.80
2023-05-13T01:15:05.241Z,71.10
2023-05-13T01:17:36.997Z,71.30
2023-05-13T01:20:09.344Z,71.30
2023-05-13T01:22:38.818Z,71.30
2023-05-13T01:25:09.337Z,71.40
2023-05-13T01:27:37.499Z,71.40
2023-05-13T01:30:06.974Z,71.50
2023-05-13T01:32:36.303Z,71.60
2023-05-13T01:35:05.324Z,71.60
2023-05-13T01:37:36.437Z,71.70
2023-05-13T01:40:17.139Z,71.80
2023-05-13T01:42:48.734Z,71.90
2023-05-13T01:45:18.928Z,72.00
2023-05-13T01:47:47.151Z,72.00
2023-05-13T01:50:16.999Z,72.10
2023-05-13T01:52:48.719Z,72.10
2023-05-13T01:55:23.139Z,72.20
2023-05-13T01:57:51.574Z,72.30
2023-05-13T02:00:20.309Z,72.20
2023-05-13T02:02:51.602Z,72.40
2023-05-13T02:05:22.400Z,72.40
2023-05-13T02:07:54.236Z,72.30
2023-05-13T02:10:23.974Z,72.40
2023-05-13T02:12:52.452Z,72.50
2023-05-13T02:15:20.747Z,72.60
2023-05-13T02:17:48.959Z,72.70
2023-05-13T02:20:17.107Z,72.70
2023-05-13T02:22:45.573Z,72.70
2023-05-13T02:25:13.632Z,72.70
2023-05-13T02:27:43.851Z,72.80
2023-05-13T02:30:12.953Z,72.90
2023-05-13T02:32:44.774Z,72.90
2023-05-13T02:35:12.950Z,73.00
2023-05-13T02:37:41.052Z,73.00
2023-05-13T02:40:10.266Z,73.80
2023-05-13T02:42:39.291Z,73.10
2023-05-13T02:45:12.027Z,73.00
2023-05-13T02:47:41.441Z,73.20
2023-05-13T02:50:10.144Z,73.20
2023-05-13T02:52:39.207Z,74.10
2023-05-13T02:55:10.764Z,73.40
2023-05-13T02:57:38.879Z,73.50
2023-05-13T03:00:11.114Z,73.50
2023-05-13T03:02:43.416Z,73.50
2023-05-13T03:05:13.660Z,73.60
2023-05-13T03:07:41.866Z,73.60
2023-05-13T03:10:14.020Z,73.70
2023-05-13T03:12:48.457Z,73.80
2023-05-13T03:15:20.861Z,73.90
2023-05-13T03:17:49.046Z,73.90
2023-05-13T03:20:17.309Z,73.90
2023-05-13T03:22:47.480Z,74.10
2023-05-13T03:25:15.647Z,74.10
2023-05-13T03:27:43.752Z,74.10
2023-05-13T03:30:15.417Z,74.20
2023-05-13T03:32:47.837Z,74.30
2023-05-13T03:35:16.057Z,74.40
2023-05-13T03:37:44.219Z,74.40
2023-05-13T03:40:15.440Z,74.40
2023-05-13T03:42:44.532Z,74.50
2023-05-13T03:45:19.905Z,74.50
2023-05-13T03:47:51.365Z,74.60
2023-05-13T03:50:21.497Z,74.60
2023-05-13T03:52:50.069Z,74.60
2023-05-13T03:55:18.099Z,74.60
2023-05-13T03:57:52.641Z,74.70
2023-05-13T04:00:20.829Z,74.80
2023-05-13T04:02:55.040Z,74.80
2023-05-13T04:05:23.313Z,74.90
2023-05-13T04:07:52.969Z,74.90
2023-05-13T04:10:21.483Z,75.00
2023-05-13T04:12:49.800Z,75.10
2023-05-13T04:15:18.049Z,75.00
2023-05-13T04:17:51.125Z,75.10
2023-05-13T04:20:22.389Z,75.20
2023-05-13T04:22:52.640Z,75.20
2023-05-13T04:25:20.940Z,75.20
2023-05-13T04:27:51.371Z,75.20
2023-05-13T04:30:19.580Z,75.20
2023-05-13T04:32:47.931Z,75.20
2023-05-13T04:35:18.324Z,75.20
2023-05-13T04:37:48.067Z,75.20
2023-05-13T04:40:19.502Z,75.30
2023-05-13T04:42:54.357Z,75.40
2023-05-13T04:45:22.453Z,75.40
2023-05-13T04:47:53.205Z,75.40
2023-05-13T04:50:23.459Z,75.40
2023-05-13T04:52:56.537Z,75.50
2023-05-13T04:55:27.882Z,75.50
2023-05-13T04:57:56.093Z,75.60
2023-05-13T05:00:24.899Z,75.50
2023-05-13T05:02:55.990Z,75.60
2023-05-13T05:05:26.664Z,75.70
2023-05-13T05:07:54.834Z,75.60
2023-05-13T05:10:25.073Z,75.70
2023-05-13T05:12:55.848Z,75.70
2023-05-13T05:15:24.206Z,75.80
2023-05-13T05:17:56.991Z,75.90
2023-05-13T05:20:29.328Z,75.50
2023-05-13T05:22:57.565Z,75.70
2023-05-13T05:25:25.870Z,75.80
2023-05-13T05:27:56.059Z,75.70
2023-05-13T05:30:24.789Z,75.70
2023-05-13T05:32:53.229Z,75.70
2023-05-13T05:35:21.411Z,75.80
2023-05-13T05:37:50.951Z,75.80
2023-05-13T05:40:20.063Z,75.90
2023-05-13T05:42:48.448Z,75.90
2023-05-13T05:45:19.197Z,75.90
2023-05-13T05:47:50.938Z,75.90
2023-05-13T05:50:35.882Z,75.90
2023-05-13T05:53:07.071Z,75.90
2023-05-13T05:55:36.955Z,75.90
2023-05-13T05:58:16.915Z,75.90
2023-05-13T06:00:47.700Z,76.10
2023-05-13T06:03:18.911Z,76.10
2023-05-13T06:05:48.851Z,76.10
2023-05-13T06:08:18.836Z,76.00
2023-05-13T06:10:47.111Z,76.00
2023-05-13T06:13:19.888Z,75.80
2023-05-13T06:15:48.006Z,75.60
2023-05-13T06:18:16.203Z,75.70
2023-05-13T06:20:44.204Z,75.70
2023-05-13T06:23:12.285Z,75.60
2023-05-13T06:25:41.873Z,75.40
2023-05-13T06:28:13.128Z,75.30
2023-05-13T06:30:46.239Z,75.40
2023-05-13T06:33:14.444Z,75.30
2023-05-13T06:35:43.102Z,75.40
2023-05-13T06:38:13.175Z,75.40
2023-05-13T06:40:43.799Z,75.60
2023-05-13T06:43:12.605Z,75.60
2023-05-13T06:45:40.785Z,75.60
2023-05-13T06:48:08.999Z,75.50
2023-05-13T06:50:39.862Z,75.60
2023-05-13T06:53:11.263Z,75.70
2023-05-13T06:55:41.921Z,75.50
2023-05-13T06:58:11.609Z,75.80
2023-05-13T07:00:42.930Z,75.70
2023-05-13T07:03:11.039Z,75.70
2023-05-13T07:05:39.011Z,75.80
2023-05-13T07:08:08.534Z,75.80
2023-05-13T07:10:37.909Z,75.80
2023-05-13T07:13:09.316Z,76.00
2023-05-13T07:15:38.831Z,75.80
2023-05-13T07:18:07.206Z,75.80
2023-05-13T07:20:35.216Z,75.80
2023-05-13T07:23:03.253Z,75.80
2023-05-13T07:25:31.348Z,75.90
2023-05-13T07:28:02.547Z,76.00
2023-05-13T07:30:30.686Z,76.00
2023-05-13T07:33:00.293Z,76.00
2023-05-13T07:35:34.462Z,76.10
2023-05-13T07:38:02.476Z,76.20
2023-05-13T07:40:33.687Z,76.50
2023-05-13T07:43:02.099Z,76.50
2023-05-13T07:45:33.239Z,76.40
2023-05-13T07:48:02.983Z,76.90
2023-05-13T07:50:33.017Z,76.70
2023-05-13T07:53:01.112Z,76.60
2023-05-13T07:55:35.394Z,76.60
2023-05-13T07:58:16.475Z,76.40
2023-05-13T08:00:45.219Z,76.50
2023-05-13T08:03:15.745Z,76.40
2023-05-13T08:05:44.150Z,76.50
2023-05-13T08:08:12.576Z,76.50
2023-05-13T08:10:43.351Z,76.40
2023-05-13T08:13:11.458Z,76.50
2023-05-13T08:15:41.311Z,76.10
2023-05-13T08:18:14.601Z,76.40
2023-05-13T08:20:46.992Z,76.60
2023-05-13T08:23:16.540Z,76.70
2023-05-13T08:25:45.190Z,76.40
2023-05-13T08:28:13.302Z,76.00
2023-05-13T08:30:44.154Z,76.10
2023-05-13T08:33:13.013Z,76.20
2023-05-13T08:35:42.908Z,76.20
2023-05-13T08:38:14.337Z,76.40
2023-05-13T08:40:47.734Z,76.30
2023-05-13T08:43:17.111Z,75.90
2023-05-13T08:45:48.187Z,76.00
2023-05-13T08:48:17.225Z,76.20
2023-05-13T08:50:51.731Z,76.00
2023-05-13T08:53:22.229Z,76.60
2023-05-13T08:55:51.122Z,76.80
2023-05-13T08:58:19.195Z,75.20
2023-05-13T09:00:47.634Z,75.90
2023-05-13T09:03:16.075Z,74.90
2023-05-13T09:05:44.980Z,71.80
2023-05-13T09:08:12.773Z,73.70
2023-05-13T09:10:41.962Z,71.70
2023-05-13T09:13:09.722Z,69.40
2023-05-13T09:15:37.462Z,68.70
2023-05-13T09:18:07.644Z,71.20
2023-05-13T09:20:37.279Z,70.10
2023-05-13T09:23:07.824Z,70.70
2023-05-13T09:25:36.028Z,67.70
2023-05-13T09:28:06.426Z,65.90
2023-05-13T09:30:35.872Z,65.30
2023-05-13T09:33:09.861Z,61.40
2023-05-13T09:35:38.888Z,62.00
2023-05-13T09:38:18.146Z,61.90
2023-05-13T09:40:52.787Z,61.70
2023-05-13T09:43:24.792Z,62.20
2023-05-13T09:45:55.817Z,62.40
2023-05-13T09:48:26.084Z,61.20
2023-05-13T09:50:55.254Z,60.60
2023-05-13T09:53:23.010Z,60.40
2023-05-13T09:55:52.517Z,60.90
2023-05-13T09:58:22.362Z,59.90
2023-05-13T10:00:50.238Z,60.00
2023-05-13T10:03:18.129Z,59.60
2023-05-13T10:05:46.117Z,58.90
2023-05-13T10:08:15.270Z,59.40
2023-05-13T10:10:45.543Z,58.30
2023-05-13T10:13:15.561Z,57.90
2023-05-13T10:15:50.282Z,58.00
2023-05-13T10:18:19.306Z,57.60
2023-05-13T10:20:52.614Z,58.10
2023-05-13T10:23:20.854Z,57.80
2023-05-13T10:25:49.318Z,57.00
2023-05-13T10:28:17.157Z,55.00
2023-05-13T10:30:47.179Z,54.20
2023-05-13T10:33:15.334Z,54.50
2023-05-13T10:35:49.948Z,53.10
2023-05-13T10:38:22.293Z,52.70
2023-05-13T10:41:08.075Z,53.90
2023-05-13T10:43:36.290Z,54.40
2023-05-13T10:46:06.709Z,53.30
2023-05-13T10:48:41.680Z,52.70
2023-05-13T10:51:11.243Z,51.80
2023-05-13T10:53:45.549Z,50.30
2023-05-13T10:56:13.550Z,50.70
2023-05-13T10:58:41.635Z,50.90
2023-05-13T11:01:26.904Z,51.40
2023-05-13T11:03:56.977Z,51.50
2023-05-13T11:06:26.995Z,50.50
2023-05-13T11:08:56.255Z,50.80
2023-05-13T11:11:32.849Z,49.40
2023-05-13T11:14:09.558Z,49.50
2023-05-13T11:16:38.912Z,49.80
2023-05-13T11:19:19.197Z,47.70
2023-05-13T11:21:50.399Z,48.60
2023-05-13T11:24:19.684Z,48.30
2023-05-13T11:26:48.885Z,46.70
2023-05-13T11:29:28.478Z,46.10
2023-05-13T11:32:00.267Z,45.00
2023-05-13T11:34:29.036Z,45.70
2023-05-13T11:37:07.000Z,46.60
2023-05-13T11:39:35.085Z,47.00
2023-05-13T11:42:07.503Z,47.20
2023-05-13T11:44:36.048Z,47.20
2023-05-13T11:47:07.886Z,47.20
2023-05-13T11:49:38.643Z,45.40
2023-05-13T11:52:07.936Z,44.10
2023-05-13T11:54:43.267Z,44.50
2023-05-13T11:57:20.974Z,44.20
2023-05-13T11:59:57.290Z,44.70
2023-05-13T12:02:28.026Z,44.30
2023-05-13T12:04:56.957Z,44.50
2023-05-13T12:07:25.803Z,45.30
2023-05-13T12:09:57.570Z,43.40
2023-05-13T12:12:27.604Z,42.00
2023-05-13T12:14:56.520Z,42.30
2023-05-13T12:17:25.769Z,42.10
2023-05-13T12:20:06.890Z,42.40
2023-05-13T12:22:34.932Z,42.40
2023-05-13T12:25:19.655Z,43.20
2023-05-13T12:27:52.810Z,42.60
2023-05-13T12:30:20.559Z,42.40
2023-05-13T12:32:49.771Z,43.30
2023-05-13T12:35:17.733Z,42.30
2023-05-13T12:37:45.584Z,41.00
2023-05-13T12:40:14.533Z,41.10
2023-05-13T12:42:45.676Z,42.40
2023-05-13T12:45:13.469Z,40.40
2023-05-13T12:47:53.998Z,39.80
2023-05-13T12:50:21.878Z,40.90
2023-05-13T12:52:49.631Z,42.40
2023-05-13T12:55:17.875Z,43.90
2023-05-13T12:57:56.091Z,44.00
2023-05-13T13:00:24.649Z,43.00
2023-05-13T13:02:54.375Z,43.30
2023-05-13T13:05:22.890Z,41.70
2023-05-13T13:07:51.012Z,41.60
2023-05-13T13:10:19.109Z,40.50
2023-05-13T13:12:46.905Z,42.20
2023-05-13T13:15:14.640Z,42.80
2023-05-13T13:17:42.619Z,43.20
2023-05-13T13:20:12.388Z,46.10
2023-05-13T13:22:40.254Z,48.10
2023-05-13T13:25:08.490Z,47.00
2023-05-13T13:27:36.294Z,48.90
2023-05-13T13:30:04.328Z,46.90
2023-05-13T13:32:35.217Z,47.00
2023-05-13T13:35:03.299Z,45.30
2023-05-13T13:37:32.375Z,46.50
2023-05-13T13:40:00.133Z,45.00
2023-05-13T13:42:36.822Z,45.60
2023-05-13T13:45:12.519Z,47.30
2023-05-13T13:47:40.400Z,46.40
2023-05-13T13:50:08.610Z,45.60
2023-05-13T13:52:37.744Z,45.80
2023-05-13T13:55:06.379Z,45.90
2023-05-13T13:57:34.119Z,44.80
2023-05-13T14:00:01.885Z,45.80
2023-05-13T14:02:29.833Z,46.00
2023-05-13T14:04:57.698Z,46.40
2023-05-13T14:07:25.593Z,46.60
2023-05-13T14:09:55.141Z,45.70
2023-05-13T14:12:22.873Z,46.20
2023-05-13T14:14:50.710Z,46.70
2023-05-13T14:17:18.650Z,47.40
2023-05-13T14:19:46.657Z,47.00
2023-05-13T14:22:14.713Z,47.60
2023-05-13T14:24:42.420Z,47.80
2023-05-13T14:27:11.531Z,48.10
2023-05-13T14:29:39.236Z,48.20
2023-05-13T14:32:07.589Z,47.80
2023-05-13T14:34:35.749Z,46.60
2023-05-13T14:37:03.520Z,46.50
2023-05-13T14:39:31.232Z,47.50
2023-05-13T14:41:58.961Z,47.00
2023-05-13T14:44:28.101Z,47.10
2023-05-13T14:46:56.383Z,47.00
2023-05-13T14:49:24.207Z,47.40
2023-05-13T14:51:51.939Z,45.10
2023-05-13T14:54:19.703Z,45.90
2023-05-13T14:56:47.579Z,45.70
2023-05-13T14:59:15.452Z,46.00
2023-05-13T15:01:44.663Z,46.60
2023-05-13T15:04:12.450Z,47.10
2023-05-13T15:06:40.209Z,47.40
2023-05-13T15:09:07.956Z,47.40
2023-05-13T15:11:37.109Z,46.80
2023-05-13T15:14:04.856Z,47.70
2023-05-13T15:16:33.056Z,48.90
2023-05-13T15:19:02.592Z,49.00
2023-05-13T15:21:31.098Z,50.40
2023-05-13T15:23:58.851Z,49.50
2023-05-13T15:26:26.830Z,47.50
2023-05-13T15:28:54.571Z,47.30
2023-05-13T15:31:22.300Z,47.50
2023-05-13T15:33:50.029Z,47.30
2023-05-13T15:36:19.215Z,47.70
2023-05-13T15:38:47.083Z,48.60
2023-05-13T15:41:14.799Z,47.60
2023-05-13T15:43:42.564Z,47.00
2023-05-13T15:46:10.364Z,46.40
2023-05-13T15:48:38.185Z,46.30
2023-05-13T15:51:07.048Z,46.50
2023-05-13T15:53:36.157Z,46.10
2023-05-13T15:56:03.954Z,45.40
2023-05-13T15:58:31.773Z,45.50
2023-05-13T16:00:59.873Z,45.90
2023-05-13T16:03:27.589Z,46.10
2023-05-13T16:05:55.807Z,46.20
2023-05-13T16:08:23.513Z,46.50
2023-05-13T16:10:52.562Z,46.70
2023-05-13T16:13:21.490Z,47.40
2023-05-13T16:15:49.644Z,47.50
2023-05-13T16:18:17.489Z,48.10
2023-05-13T16:20:45.389Z,47.30
2023-05-13T16:23:13.466Z,47.40
2023-05-13T16:25:41.709Z,48.10
2023-05-13T16:28:11.296Z,48.20
2023-05-13T16:30:39.426Z,47.50
2023-05-13T16:33:09.281Z,46.80
2023-05-13T16:35:37.867Z,48.60
2023-05-13T16:38:05.890Z,49.20
2023-05-13T16:40:33.662Z,49.40
2023-05-13T16:43:03.389Z,47.50
2023-05-13T16:45:33.025Z,46.90
2023-05-13T16:48:00.849Z,45.60
2023-05-13T16:50:28.732Z,45.10
2023-05-13T16:52:56.900Z,44.80
2023-05-13T16:55:25.943Z,45.60
2023-05-13T16:57:53.834Z,46.40
2023-05-13T17:00:21.751Z,47.00
2023-05-13T17:02:51.119Z,47.90
2023-05-13T17:05:19.346Z,47.40
2023-05-13T17:07:47.151Z,46.80
2023-05-13T17:10:14.926Z,47.60
2023-05-13T17:12:42.672Z,46.90
2023-05-13T17:15:11.030Z,47.50
2023-05-13T17:17:38.844Z,47.40
2023-05-13T17:20:09.367Z,47.20
2023-05-13T17:22:37.093Z,47.10
2023-05-13T17:25:05.591Z,47.10
2023-05-13T17:27:33.323Z,47.10
2023-05-13T17:30:01.028Z,46.40
2023-05-13T17:32:28.814Z,45.90
2023-05-13T17:34:56.586Z,46.20
2023-05-13T17:37:25.724Z,45.10
2023-05-13T17:39:54.668Z,45.10
2023-05-13T17:42:22.702Z,45.50
2023-05-13T17:44:50.479Z,45.50
2023-05-13T17:47:18.251Z,45.60
2023-05-13T17:49:45.974Z,45.90
2023-05-13T17:52:13.726Z,46.40
2023-05-13T17:54:42.800Z,46.20
2023-05-13T17:57:11.031Z,46.10
2023-05-13T17:59:38.833Z,45.70
2023-05-13T18:03:14.961Z,45.70
2023-05-13T18:06:44.017Z,45.20
2023-05-13T18:28:37.651Z,49.60
2023-05-13T18:32:53.159Z,51.30
2023-05-13T18:39:34.633Z,51.50
2023-05-13T18:49:48.885Z,53.00
2023-05-13T18:59:49.621Z,53.80
2023-05-13T19:09:57.870Z,55.00
2023-05-13T19:13:33.195Z,55.10
2023-05-13T19:16:08.854Z,54.90
2023-05-13T19:18:42.554Z,55.10
2023-05-13T19:21:23.880Z,54.90
2023-05-13T19:23:54.136Z,55.70
2023-05-13T19:26:56.281Z,55.90
2023-05-13T19:29:31.716Z,56.30
2023-05-13T19:39:02.984Z,57.00
2023-05-13T19:45:12.571Z,57.50
2023-05-13T19:48:27.728Z,57.70
2023-05-13T19:54:52.338Z,58.30
2023-05-13T19:58:25.902Z,58.60
2023-05-13T20:01:01.913Z,58.90
2023-05-13T20:03:34.837Z,59.00
2023-05-13T20:06:10.567Z,59.10
2023-05-13T20:09:31.081Z,59.30
2023-05-13T20:12:25.794Z,59.50
2023-05-13T20:14:58.835Z,59.70
2023-05-13T20:17:50.685Z,59.80
2023-05-13T20:20:45.195Z,60.00
2023-05-13T20:23:36.895Z,60.10
2023-05-13T20:26:36.305Z,60.40
2023-05-13T20:29:28.456Z,60.40
2023-05-13T20:32:20.275Z,60.60
2023-05-13T20:35:09.684Z,60.70
2023-05-13T20:37:54.127Z,60.80
2023-05-13T20:43:33.711Z,61.10
2023-05-13T20:46:19.099Z,61.20
2023-05-13T20:48:55.535Z,61.50
2023-05-13T20:51:34.271Z,61.60
2023-05-13T20:54:18.745Z,61.80
2023-05-13T20:56:55.429Z,62.00
2023-05-13T21:00:30.101Z,62.10
2023-05-13T21:03:09.476Z,62.50
2023-05-13T21:09:28.394Z,62.60
2023-05-13T21:12:50.753Z,62.80
2023-05-13T21:15:28.317Z,63.00
2023-05-13T21:18:25.566Z,63.20
2023-05-13T21:21:55.425Z,63.40
2023-05-13T21:27:14.800Z,63.50
2023-05-13T21:30:35.034Z,63.60
2023-05-13T21:33:30.153Z,63.80
2023-05-13T21:36:08.260Z,64.10
2023-05-13T21:39:09.151Z,64.10
2023-05-13T21:42:07.711Z,64.20
2023-05-13T21:45:06.891Z,64.20
2023-05-13T21:48:34.426Z,64.30
2023-05-13T21:54:21.879Z,64.90
2023-05-13T21:57:30.187Z,64.80
2023-05-13T22:00:35.052Z,65.00
2023-05-13T22:03:41.849Z,65.00
2023-05-13T22:07:19.730Z,65.20
2023-05-13T22:10:24.366Z,66.10
2023-05-13T22:13:25.303Z,65.40
2023-05-13T22:16:28.274Z,65.50
2023-05-13T22:19:27.110Z,65.70
2023-05-13T22:22:59.705Z,65.70
2023-05-13T22:29:03.733Z,65.90
2023-05-13T22:31:58.756Z,66.20
2023-05-13T22:37:50.251Z,66.50
2023-05-13T22:40:39.135Z,66.60
2023-05-13T22:43:26.861Z,66.70
2023-05-13T22:46:21.219Z,67.00
2023-05-13T22:52:45.046Z,67.40
2023-05-13T22:55:51.849Z,67.40
2023-05-13T22:58:52.540Z,67.50
2023-05-13T23:01:28.598Z,67.70
2023-05-13T23:04:58.856Z,67.70
2023-05-13T23:08:11.008Z,67.90
2023-05-13T23:11:48.354Z,68.20
2023-05-13T23:18:35.645Z,68.50
2023-05-13T23:21:50.738Z,68.40
2023-05-13T23:24:56.137Z,68.70
2023-05-13T23:35:22.170Z,69.00
2023-05-13T23:38:53.589Z,69.10
2023-05-13T23:42:43.030Z,69.10
2023-05-13T23:49:39.472Z,69.40
2023-05-13T23:56:40.554Z,69.80
2023-05-13T23:59:47.049Z,70.70
